CMB852 Details

Departure: Yokota AFB (RJTY)
Arrival: Paya Lebar Airport (WSAP)
Route: XAC V18 MOE KARTA BUBDO MDE JOM M767 TOMAN
Notes: USTRANSCOM CONTRACT FLIGHT


Current Weather Information
RJTY 212256Z AUTO 00000KT 10SM BKN060 17/12 A2977 RMK AO2 SLP082 T01710116 FZRANO $
WSAP 212300Z 01001KT 9999 FEW017 FEW018TCU BKN300 28/26 Q1010